Time;durP1;ratioP1;P1;durP2;ratioP2;P2;SDS_P1;SDS_P2;PMS_P1;PMS_P2;Temp;Humidity;BMP_temperature;BMP_pressure;BME280_temperature;BME280_humidity;BME280_pressure;Samples;Min_cycle;Max_cycle;Signal;HPM_P1;HPM_P2
2023/08/27 00:00:39;;;;;;;;;0.00;0.00;;;;;;;;5030134;28;8789;-82
2023/08/27 00:03:08;;;;;;;;;1.25;1.25;;;;;;;;5031722;28;8875;-81
2023/08/27 00:05:41;;;;;;;;;1.75;1.75;;;;;;;;5030724;28;8925;-81
2023/08/27 00:08:08;;;;;;;;;2.00;2.00;;;;;;;;5031866;28;8987;-82
2023/08/27 00:10:35;;;;;;;;;1.75;1.75;;;;;;;;5030524;28;8880;-80
2023/08/27 00:13:03;;;;;;;;;3.25;0.75;;;;;;;;5032118;28;8868;-81
2023/08/27 00:15:30;;;;;;;;;1.75;1.75;;;;;;;;5032810;28;8864;-81
2023/08/27 00:17:57;;;;;;;;;2.00;2.00;;;;;;;;5035287;28;8885;-81
2023/08/27 00:20:26;;;;;;;;;0.75;0.75;;;;;;;;5037032;28;8872;-81
2023/08/27 00:22:53;;;;;;;;;2.25;1.00;;;;;;;;5037078;28;9726;-82
2023/08/27 00:25:20;;;;;;;;;1.25;1.25;;;;;;;;5036793;28;8980;-81
2023/08/27 00:27:48;;;;;;;;;1.75;1.75;;;;;;;;5036809;28;8876;-82
2023/08/27 00:30:15;;;;;;;;;3.25;2.00;;;;;;;;5022366;28;8987;-82
2023/08/27 00:32:42;;;;;;;;;6.75;5.00;;;;;;;;5030090;28;8867;-80
2023/08/27 00:35:10;;;;;;;;;3.75;3.75;;;;;;;;5031160;28;8958;-84
2023/08/27 00:37:38;;;;;;;;;3.00;3.00;;;;;;;;5020302;28;8868;-83
2023/08/27 00:40:07;;;;;;;;;5.00;3.50;;;;;;;;5031146;28;8986;-84
2023/08/27 00:42:34;;;;;;;;;5.00;3.25;;;;;;;;5030446;28;8872;-82
2023/08/27 00:45:03;;;;;;;;;4.00;4.00;;;;;;;;5031379;28;8852;-83
2023/08/27 00:47:31;;;;;;;;;6.00;6.00;;;;;;;;5030426;28;8863;-82
2023/08/27 00:49:59;;;;;;;;;3.00;3.00;;;;;;;;5031050;28;8945;-82
2023/08/27 00:52:27;;;;;;;;;2.00;2.00;;;;;;;;5028312;28;9280;-82
2023/08/27 00:54:56;;;;;;;;;3.75;3.25;;;;;;;;5031299;28;8862;-82
2023/08/27 00:57:23;;;;;;;;;3.00;3.00;;;;;;;;5030945;28;8860;-82
2023/08/27 00:59:50;;;;;;;;;2.00;2.00;;;;;;;;5033811;28;8872;-82
2023/08/27 01:02:18;;;;;;;;;2.00;2.00;;;;;;;;5031694;28;8806;-82
2023/08/27 01:04:45;;;;;;;;;3.00;3.00;;;;;;;;5030822;28;8904;-82
2023/08/27 01:07:17;;;;;;;;;2.75;2.75;;;;;;;;5029506;28;8879;-82
2023/08/27 01:09:50;;;;;;;;;3.25;3.25;;;;;;;;5029750;28;8879;-80
2023/08/27 01:12:24;;;;;;;;;5.75;4.00;;;;;;;;5029745;28;8858;-82
2023/08/27 01:14:53;;;;;;;;;1.75;1.75;;;;;;;;5030282;28;8910;-82
2023/08/27 01:17:22;;;;;;;;;3.25;3.25;;;;;;;;4996129;28;8872;-82
2023/08/27 01:19:50;;;;;;;;;3.00;3.00;;;;;;;;5029758;28;8864;-82
2023/08/27 01:22:18;;;;;;;;;2.25;2.25;;;;;;;;5029867;28;8860;-82
2023/08/27 01:24:46;;;;;;;;;3.75;3.75;;;;;;;;5029673;28;8864;-82
2023/08/27 01:27:15;;;;;;;;;3.00;3.00;;;;;;;;5030118;28;8851;-81
2023/08/27 01:29:46;;;;;;;;;3.75;2.25;;;;;;;;5029378;28;8864;-82
2023/08/27 01:32:29;;;;;;;;;2.25;2.25;;;;;;;;5029697;28;8824;-82
2023/08/27 01:34:57;;;;;;;;;2.00;2.00;;;;;;;;5028670;28;8856;-82
2023/08/27 01:37:26;;;;;;;;;2.50;2.50;;;;;;;;5019595;28;8856;-81
2023/08/27 01:39:59;;;;;;;;;2.00;2.00;;;;;;;;5029410;28;8860;-82
2023/08/27 01:42:26;;;;;;;;;1.00;1.00;;;;;;;;5029136;28;8966;-82
2023/08/27 01:44:54;;;;;;;;;2.00;2.00;;;;;;;;5029543;28;8869;-81
2023/08/27 01:47:21;;;;;;;;;1.00;1.00;;;;;;;;5028913;28;8862;-82
2023/08/27 01:49:52;;;;;;;;;1.00;1.00;;;;;;;;5029503;28;8848;-81
2023/08/27 01:52:19;;;;;;;;;1.00;1.00;;;;;;;;5029871;28;8844;-81
2023/08/27 01:54:48;;;;;;;;;2.00;2.00;;;;;;;;5031279;28;8860;-81
2023/08/27 01:57:15;;;;;;;;;1.50;1.50;;;;;;;;5033168;28;8891;-81
2023/08/27 01:59:42;;;;;;;;;1.00;1.00;;;;;;;;5033773;28;9022;-80
2023/08/27 02:02:09;;;;;;;;;0.75;0.75;;;;;;;;5032363;28;8801;-81
2023/08/27 02:04:37;;;;;;;;;0.00;0.00;;;;;;;;5035678;28;8877;-81
2023/08/27 02:07:04;;;;;;;;;1.00;1.00;;;;;;;;5035147;28;8860;-82
2023/08/27 02:09:32;;;;;;;;;1.00;1.00;;;;;;;;5031072;28;8857;-81
2023/08/27 02:12:00;;;;;;;;;1.00;1.00;;;;;;;;5027762;28;8898;-80
2023/08/27 02:14:27;;;;;;;;;1.00;1.00;;;;;;;;5028607;28;8878;-82
2023/08/27 02:16:54;;;;;;;;;1.25;1.00;;;;;;;;5028408;28;8860;-81
2023/08/27 02:19:22;;;;;;;;;2.25;2.25;;;;;;;;5028307;28;8857;-82
2023/08/27 02:21:51;;;;;;;;;2.00;2.00;;;;;;;;5028575;28;8856;-82
2023/08/27 02:24:18;;;;;;;;;2.00;2.00;;;;;;;;5029068;28;8871;-83
2023/08/27 02:26:45;;;;;;;;;2.00;2.00;;;;;;;;5028495;28;8852;-81
2023/08/27 02:29:15;;;;;;;;;0.25;0.25;;;;;;;;5028751;28;8974;-82
2023/08/27 02:31:42;;;;;;;;;1.75;1.75;;;;;;;;5028164;28;8793;-81
2023/08/27 02:34:09;;;;;;;;;1.00;1.00;;;;;;;;5028532;28;8856;-80
2023/08/27 02:36:36;;;;;;;;;2.00;2.00;;;;;;;;5017827;28;8949;-82
2023/08/27 02:39:04;;;;;;;;;2.00;2.00;;;;;;;;5030213;28;8884;-83
2023/08/27 02:41:32;;;;;;;;;1.75;1.75;;;;;;;;5030727;28;8886;-82
2023/08/27 02:43:59;;;;;;;;;1.25;1.25;;;;;;;;5028870;28;8987;-82
2023/08/27 02:46:28;;;;;;;;;1.75;1.75;;;;;;;;5028247;28;8864;-82
2023/08/27 02:48:55;;;;;;;;;2.50;2.50;;;;;;;;5028381;28;8850;-82
2023/08/27 02:51:23;;;;;;;;;2.00;2.00;;;;;;;;5028700;28;8840;-82
2023/08/27 02:53:51;;;;;;;;;2.25;1.75;;;;;;;;5026526;28;8879;-82
2023/08/27 02:56:18;;;;;;;;;1.00;1.00;;;;;;;;5022574;28;8973;-82
2023/08/27 02:58:47;;;;;;;;;0.00;0.00;;;;;;;;5021456;28;8882;-81
2023/08/27 03:01:18;;;;;;;;;0.00;0.00;;;;;;;;5027544;28;8821;-82
2023/08/27 03:03:47;;;;;;;;;1.00;1.00;;;;;;;;5027932;28;8856;-80
2023/08/27 03:06:14;;;;;;;;;0.75;0.75;;;;;;;;5027195;28;8860;-81
2023/08/27 03:08:42;;;;;;;;;1.00;1.00;;;;;;;;5027784;28;8852;-80
2023/08/27 03:11:09;;;;;;;;;1.25;1.25;;;;;;;;5028216;28;8852;-81
2023/08/27 03:13:37;;;;;;;;;0.50;0.50;;;;;;;;5028322;28;8888;-80
2023/08/27 03:16:07;;;;;;;;;1.00;1.00;;;;;;;;5028028;28;8840;-81
2023/08/27 03:18:34;;;;;;;;;1.00;1.00;;;;;;;;5028389;28;8882;-80
2023/08/27 03:21:05;;;;;;;;;1.00;0.00;;;;;;;;5028051;28;8856;-81
2023/08/27 03:23:35;;;;;;;;;1.00;1.00;;;;;;;;5027963;28;8860;-81
2023/08/27 03:26:05;;;;;;;;;1.00;0.50;;;;;;;;5028125;28;8870;-81
2023/08/27 03:28:32;;;;;;;;;0.50;0.50;;;;;;;;5028570;28;8859;-82
2023/08/27 03:31:05;;;;;;;;;1.25;1.25;;;;;;;;5020615;28;8779;-81
2023/08/27 03:33:32;;;;;;;;;0.00;0.00;;;;;;;;5034385;28;8882;-81
2023/08/27 03:36:06;;;;;;;;;1.00;1.00;;;;;;;;5035717;28;8854;-81
2023/08/27 03:38:33;;;;;;;;;1.00;1.00;;;;;;;;5029200;28;8868;-82
2023/08/27 03:41:00;;;;;;;;;1.00;1.00;;;;;;;;5037904;28;9409;-81
2023/08/27 03:43:26;;;;;;;;;1.00;1.00;;;;;;;;5038160;28;8870;-81
2023/08/27 03:45:53;;;;;;;;;1.00;1.00;;;;;;;;5037181;28;8863;-81
2023/08/27 03:48:21;;;;;;;;;0.50;0.50;;;;;;;;5034720;28;8860;-82
2023/08/27 03:50:48;;;;;;;;;2.00;1.00;;;;;;;;5030943;28;8880;-80
2023/08/27 03:53:18;;;;;;;;;1.00;1.00;;;;;;;;5031161;28;8867;-81
2023/08/27 03:55:45;;;;;;;;;0.25;0.25;;;;;;;;5030482;28;8990;-81
2023/08/27 03:58:13;;;;;;;;;1.00;1.00;;;;;;;;5029754;28;8868;-81
2023/08/27 04:00:43;;;;;;;;;2.00;2.00;;;;;;;;5028312;28;8828;-82
2023/08/27 04:03:10;;;;;;;;;2.00;2.00;;;;;;;;5030768;28;9747;-81
2023/08/27 04:05:39;;;;;;;;;2.00;2.00;;;;;;;;5030549;28;8882;-82
2023/08/27 04:08:07;;;;;;;;;2.00;2.00;;;;;;;;5031293;28;8891;-86
2023/08/27 04:10:36;;;;;;;;;0.75;0.25;;;;;;;;5030458;28;8877;-82
2023/08/27 04:13:03;;;;;;;;;3.00;3.00;;;;;;;;5030781;28;8982;-81
2023/08/27 04:15:33;;;;;;;;;3.75;3.00;;;;;;;;5031631;28;8998;-82
2023/08/27 04:18:00;;;;;;;;;3.50;3.00;;;;;;;;5032545;28;8869;-82
2023/08/27 04:20:31;;;;;;;;;4.00;4.00;;;;;;;;5033156;28;8870;-81
2023/08/27 04:22:58;;;;;;;;;4.00;2.00;;;;;;;;5030820;28;9721;-81
2023/08/27 04:25:25;;;;;;;;;5.75;4.00;;;;;;;;5030463;28;8897;-82
2023/08/27 04:27:53;;;;;;;;;3.75;3.75;;;;;;;;5029366;28;9670;-82
2023/08/27 04:30:21;;;;;;;;;4.25;4.00;;;;;;;;5029934;28;8876;-83
2023/08/27 04:32:48;;;;;;;;;5.00;4.00;;;;;;;;5029237;28;8974;-82
2023/08/27 04:35:15;;;;;;;;;4.75;4.75;;;;;;;;5030421;28;8866;-82
2023/08/27 04:37:44;;;;;;;;;4.50;4.50;;;;;;;;5018523;28;8983;-81
2023/08/27 04:40:12;;;;;;;;;7.00;7.00;;;;;;;;5030436;28;8891;-81
2023/08/27 04:42:39;;;;;;;;;8.00;6.00;;;;;;;;5028933;28;8870;-80
2023/08/27 04:45:09;;;;;;;;;9.50;8.00;;;;;;;;5030948;28;8840;-81
2023/08/27 04:47:37;;;;;;;;;6.25;6.25;;;;;;;;5029601;28;9030;-81
2023/08/27 04:50:04;;;;;;;;;6.00;6.00;;;;;;;;5029799;28;8868;-81
2023/08/27 04:52:31;;;;;;;;;6.25;6.25;;;;;;;;5029560;28;8876;-82
2023/08/27 04:54:59;;;;;;;;;4.25;4.25;;;;;;;;5029628;28;9280;-81
2023/08/27 04:57:26;;;;;;;;;7.75;5.75;;;;;;;;5029216;28;8836;-81
2023/08/27 04:59:54;;;;;;;;;5.25;4.25;;;;;;;;5029756;28;8889;-81
2023/08/27 05:02:23;;;;;;;;;2.00;1.25;;;;;;;;5028862;28;8801;-81
2023/08/27 05:04:50;;;;;;;;;7.67;7.67;;;;;;;;5029702;28;8880;-80
2023/08/27 05:07:17;;;;;;;;;9.00;7.67;;;;;;;;5029111;28;9006;-73
2023/08/27 05:09:46;;;;;;;;;8.00;8.00;;;;;;;;5029332;28;9102;-72
2023/08/27 05:12:13;;;;;;;;;6.50;6.50;;;;;;;;5029628;28;8852;-72
2023/08/27 05:14:41;;;;;;;;;6.25;5.50;;;;;;;;5033522;28;8906;-71
2023/08/27 05:17:08;;;;;;;;;5.75;5.75;;;;;;;;5030882;28;8859;-72
2023/08/27 05:19:36;;;;;;;;;5.00;5.00;;;;;;;;5024209;28;8849;-72
2023/08/27 05:22:04;;;;;;;;;7.25;6.00;;;;;;;;5024936;28;8856;-72
2023/08/27 05:24:31;;;;;;;;;6.75;5.00;;;;;;;;5024717;28;8986;-72
2023/08/27 05:26:58;;;;;;;;;6.75;5.50;;;;;;;;5028884;28;8981;-72
2023/08/27 05:29:25;;;;;;;;;6.00;6.00;;;;;;;;5028431;28;8832;-73
2023/08/27 05:31:53;;;;;;;;;8.50;8.50;;;;;;;;5028083;28;8843;-71
2023/08/27 05:34:20;;;;;;;;;7.50;6.25;;;;;;;;5028155;28;9018;-70
2023/08/27 05:36:48;;;;;;;;;6.00;6.00;;;;;;;;5028229;28;8832;-71
2023/08/27 05:39:16;;;;;;;;;6.75;6.75;;;;;;;;5028737;28;8840;-70
2023/08/27 05:41:43;;;;;;;;;6.75;6.75;;;;;;;;5028635;28;8856;-72
2023/08/27 05:44:10;;;;;;;;;6.00;5.75;;;;;;;;5028415;28;8884;-72
2023/08/27 05:46:38;;;;;;;;;8.00;8.00;;;;;;;;5028387;28;8898;-74
2023/08/27 05:49:05;;;;;;;;;7.25;7.25;;;;;;;;5027861;28;8902;-72
2023/08/27 05:51:35;;;;;;;;;8.25;8.25;;;;;;;;5028082;28;8882;-73
2023/08/27 05:54:03;;;;;;;;;7.50;7.50;;;;;;;;5028509;28;9698;-71
2023/08/27 05:56:31;;;;;;;;;8.00;8.00;;;;;;;;5028289;28;8864;-73
2023/08/27 05:58:58;;;;;;;;;11.00;11.00;;;;;;;;5028311;28;8864;-71
2023/08/27 06:01:25;;;;;;;;;10.00;8.50;;;;;;;;5027061;28;9595;-71
2023/08/27 06:03:52;;;;;;;;;8.75;8.75;;;;;;;;5027673;28;8950;-73
2023/08/27 06:06:19;;;;;;;;;9.00;7.00;;;;;;;;5028138;28;8852;-72
2023/08/27 06:08:47;;;;;;;;;10.25;8.00;;;;;;;;5027702;28;8864;-71
2023/08/27 06:11:15;;;;;;;;;7.75;7.00;;;;;;;;5028148;28;8848;-71
2023/08/27 06:13:42;;;;;;;;;8.00;8.00;;;;;;;;5027762;28;8879;-71
2023/08/27 06:16:10;;;;;;;;;8.00;8.00;;;;;;;;5028187;28;8870;-71
2023/08/27 06:18:37;;;;;;;;;8.25;8.25;;;;;;;;5027828;28;10089;-70
2023/08/27 06:21:04;;;;;;;;;7.25;7.25;;;;;;;;5027408;28;8882;-71
2023/08/27 06:23:31;;;;;;;;;6.75;6.75;;;;;;;;5027079;28;8875;-72
2023/08/27 06:26:03;;;;;;;;;10.50;9.75;;;;;;;;5027657;28;8870;-76
2023/08/27 06:28:32;;;;;;;;;12.75;7.75;;;;;;;;5027201;28;8886;-70
2023/08/27 06:31:00;;;;;;;;;5.00;5.00;;;;;;;;5026241;28;8851;-70
2023/08/27 06:33:27;;;;;;;;;8.25;6.25;;;;;;;;5027465;28;8842;-70
2023/08/27 06:35:54;;;;;;;;;7.50;7.50;;;;;;;;5026858;28;8840;-71
2023/08/27 06:38:21;;;;;;;;;5.50;5.50;;;;;;;;5027342;28;8852;-76
2023/08/27 06:40:49;;;;;;;;;5.00;5.00;;;;;;;;5027087;28;8867;-71
2023/08/27 06:43:16;;;;;;;;;5.75;5.75;;;;;;;;5027274;28;8860;-71
2023/08/27 06:45:47;;;;;;;;;7.00;6.00;;;;;;;;5027609;28;8852;-70
2023/08/27 06:48:15;;;;;;;;;4.75;4.75;;;;;;;;5027352;28;8834;-73
2023/08/27 06:50:43;;;;;;;;;5.75;5.00;;;;;;;;5028488;28;8858;-74
2023/08/27 06:53:10;;;;;;;;;6.00;6.00;;;;;;;;5030206;28;8941;-70
2023/08/27 06:55:38;;;;;;;;;5.25;5.25;;;;;;;;5029352;28;8872;-72
2023/08/27 06:58:05;;;;;;;;;6.50;6.25;;;;;;;;5030385;28;8873;-73
2023/08/27 07:00:33;;;;;;;;;5.25;4.00;;;;;;;;5029759;28;8822;-73
2023/08/27 07:03:01;;;;;;;;;6.75;6.75;;;;;;;;5032278;28;8929;-71
2023/08/27 07:05:30;;;;;;;;;5.75;5.75;;;;;;;;5029348;28;8852;-72
2023/08/27 07:07:58;;;;;;;;;5.75;5.75;;;;;;;;5034008;28;8941;-71
2023/08/27 07:10:25;;;;;;;;;5.50;4.75;;;;;;;;5033822;28;8918;-72
2023/08/27 07:12:55;;;;;;;;;5.75;5.00;;;;;;;;5034327;28;8844;-72
2023/08/27 07:15:22;;;;;;;;;5.50;5.50;;;;;;;;5033182;28;9000;-72
2023/08/27 07:17:49;;;;;;;;;5.50;5.50;;;;;;;;5033827;28;8976;-71
2023/08/27 07:20:18;;;;;;;;;6.00;6.00;;;;;;;;5032058;28;8854;-75
2023/08/27 07:22:45;;;;;;;;;4.75;4.75;;;;;;;;5033668;28;8898;-70
2023/08/27 07:25:12;;;;;;;;;5.75;4.75;;;;;;;;5033805;28;8840;-73
2023/08/27 07:27:39;;;;;;;;;4.00;4.00;;;;;;;;5033403;28;9686;-72
2023/08/27 07:30:08;;;;;;;;;5.25;5.25;;;;;;;;5032766;28;8870;-70
2023/08/27 07:32:36;;;;;;;;;4.75;3.25;;;;;;;;5033300;28;8896;-73
2023/08/27 07:35:04;;;;;;;;;4.50;4.50;;;;;;;;5033878;28;8848;-72
2023/08/27 07:37:33;;;;;;;;;5.00;3.00;;;;;;;;5021895;28;8878;-71
2023/08/27 07:40:03;;;;;;;;;4.50;2.00;;;;;;;;5033490;28;8882;-71
2023/08/27 07:42:30;;;;;;;;;4.00;4.00;;;;;;;;5032930;28;8856;-70
2023/08/27 07:44:57;;;;;;;;;3.00;3.00;;;;;;;;5033513;28;8882;-71
2023/08/27 07:47:24;;;;;;;;;5.00;3.00;;;;;;;;5032643;28;8848;-71
2023/08/27 07:49:55;;;;;;;;;2.75;2.75;;;;;;;;5033179;28;8882;-72
2023/08/27 07:52:24;;;;;;;;;3.00;3.00;;;;;;;;5032678;28;8910;-73
2023/08/27 07:54:53;;;;;;;;;2.00;2.00;;;;;;;;5033719;28;8967;-72
2023/08/27 07:57:20;;;;;;;;;3.00;3.00;;;;;;;;5032729;28;8848;-73
2023/08/27 07:59:48;;;;;;;;;3.00;3.00;;;;;;;;5033655;28;8868;-72
2023/08/27 08:02:15;;;;;;;;;3.75;3.75;;;;;;;;5032657;28;8832;-73
2023/08/27 08:04:43;;;;;;;;;3.00;3.00;;;;;;;;5034086;28;8860;-72
2023/08/27 08:07:10;;;;;;;;;2.00;2.00;;;;;;;;5033513;28;8922;-72
2023/08/27 08:09:37;;;;;;;;;2.25;2.25;;;;;;;;5033318;28;8871;-76
2023/08/27 08:12:07;;;;;;;;;2.00;2.00;;;;;;;;5032986;28;8864;-79
2023/08/27 08:14:34;;;;;;;;;3.00;2.75;;;;;;;;5033089;28;8929;-73
2023/08/27 08:17:02;;;;;;;;;3.00;3.00;;;;;;;;5030249;28;8844;-78
2023/08/27 08:19:29;;;;;;;;;3.25;3.25;;;;;;;;5030176;28;8848;-71
2023/08/27 08:21:56;;;;;;;;;1.75;1.75;;;;;;;;5029961;28;8939;-71
2023/08/27 08:24:24;;;;;;;;;2.00;2.00;;;;;;;;5030504;28;9608;-71
2023/08/27 08:26:52;;;;;;;;;2.00;2.00;;;;;;;;5029916;28;8868;-71
2023/08/27 08:29:22;;;;;;;;;1.75;1.75;;;;;;;;5030637;28;8890;-73
2023/08/27 08:31:51;;;;;;;;;2.00;2.00;;;;;;;;5018829;28;8878;-71
2023/08/27 08:34:21;;;;;;;;;1.75;1.75;;;;;;;;5031866;28;8868;-72
2023/08/27 08:36:48;;;;;;;;;1.00;1.00;;;;;;;;5032419;28;8848;-71
2023/08/27 08:39:16;;;;;;;;;1.40;1.40;;;;;;;;5032556;28;8867;-72
2023/08/27 08:41:54;;;;;;;;;2.00;2.00;;;;;;;;5033637;28;9701;-69
2023/08/27 08:44:32;;;;;;;;;1.60;1.60;;;;;;;;5029624;28;8874;-75
2023/08/27 08:47:00;;;;;;;;;0.80;0.80;;;;;;;;5029869;28;8868;-70
2023/08/27 08:49:28;;;;;;;;;2.60;2.00;;;;;;;;5028927;28;8861;-71
2023/08/27 08:52:01;;;;;;;;;0.80;0.80;;;;;;;;5028072;28;8902;-70
2023/08/27 08:54:29;;;;;;;;;2.60;1.80;;;;;;;;5029272;28;8876;-71
2023/08/27 08:57:01;;;;;;;;;1.60;1.60;;;;;;;;5029309;28;8882;-72
2023/08/27 08:59:30;;;;;;;;;1.20;1.20;;;;;;;;5019203;28;8852;-79
2023/08/27 09:01:58;;;;;;;;;2.00;1.80;;;;;;;;5027959;28;8785;-74
2023/08/27 09:04:26;;;;;;;;;1.00;1.00;;;;;;;;5018996;28;8921;-71
2023/08/27 09:06:59;;;;;;;;;1.20;1.20;;;;;;;;5029096;28;8867;-71
2023/08/27 09:09:26;;;;;;;;;3.40;2.00;;;;;;;;5029039;28;8867;-70
2023/08/27 09:11:55;;;;;;;;;1.00;1.00;;;;;;;;5028988;28;8963;-76
2023/08/27 09:14:23;;;;;;;;;1.00;1.00;;;;;;;;5028971;28;8848;-70
2023/08/27 09:16:52;;;;;;;;;3.20;1.80;;;;;;;;5028723;28;8860;-69
2023/08/27 09:19:19;;;;;;;;;1.00;1.00;;;;;;;;5028720;28;8853;-72
2023/08/27 09:21:47;;;;;;;;;1.80;0.80;;;;;;;;5029449;28;8878;-73
2023/08/27 09:24:14;;;;;;;;;1.40;1.40;;;;;;;;5030008;28;8892;-74
2023/08/27 09:26:41;;;;;;;;;1.20;1.20;;;;;;;;5028446;28;9631;-75
2023/08/27 09:29:09;;;;;;;;;0.00;0.00;;;;;;;;5028945;28;9564;-76
2023/08/27 09:31:38;;;;;;;;;235.67;204.33;;;;;;;;5027634;28;8817;-72
2023/08/27 09:34:07;;;;;;;;;1.50;0.00;;;;;;;;5028625;28;11786;-72
2023/08/27 09:36:36;;;;;;;;;4.40;3.40;;;;;;;;5028288;28;8998;-72
2023/08/27 09:39:09;;;;;;;;;3.20;3.20;;;;;;;;5028764;28;8868;-72
2023/08/27 09:41:38;;;;;;;;;2.20;1.80;;;;;;;;5018012;28;8852;-72
2023/08/27 09:44:07;;;;;;;;;29.25;25.25;;;;;;;;5028573;28;8875;-71
2023/08/27 09:46:35;;;;;;;;;3.00;3.00;;;;;;;;5028409;28;8927;-75
2023/08/27 09:49:04;;;;;;;;;2.00;2.00;;;;;;;;5028633;28;8836;-73
2023/08/27 09:51:33;;;;;;;;;1.00;0.80;;;;;;;;5028960;28;8844;-72
2023/08/27 09:54:01;;;;;;;;;5.20;5.20;;;;;;;;5028345;28;8874;-72
2023/08/27 09:56:28;;;;;;;;;3.00;2.00;;;;;;;;5028623;28;8871;-74
2023/08/27 09:58:56;;;;;;;;;1.00;1.00;;;;;;;;5027722;28;8904;-71
2023/08/27 10:01:34;;;;;;;;;4.60;3.20;;;;;;;;5027716;28;8967;-72
2023/08/27 10:04:07;;;;;;;;;10.00;8.20;;;;;;;;5027621;28;8868;-72
2023/08/27 10:06:37;;;;;;;;;22.50;21.00;;;;;;;;5028345;28;8954;-72
2023/08/27 10:09:05;;;;;;;;;52.25;43.00;;;;;;;;5029439;28;8922;-71
2023/08/27 10:11:33;;;;;;;;;8.40;6.60;;;;;;;;5030184;28;8856;-71
2023/08/27 10:14:02;;;;;;;;;7.00;7.00;;;;;;;;5019666;28;8937;-75
2023/08/27 10:16:30;;;;;;;;;0.80;0.80;;;;;;;;5030687;28;8883;-72
2023/08/27 10:18:58;;;;;;;;;1.80;1.80;;;;;;;;5032616;28;8861;-76
2023/08/27 10:21:25;;;;;;;;;2.40;2.40;;;;;;;;5030088;28;8886;-77
2023/08/27 10:23:54;;;;;;;;;0.20;0.20;;;;;;;;5028148;28;8868;-77
2023/08/27 10:26:25;;;;;;;;;0.60;0.60;;;;;;;;5027436;28;8886;-75
2023/08/27 10:28:59;;;;;;;;;3.60;3.60;;;;;;;;5028261;28;8860;-75
2023/08/27 10:31:27;;;;;;;;;13.00;13.00;;;;;;;;5027141;28;8797;-75
2023/08/27 10:33:54;;;;;;;;;36.00;32.25;;;;;;;;5028310;28;8911;-73
2023/08/27 10:36:26;;;;;;;;;19.75;16.75;;;;;;;;5026506;28;8820;-73
2023/08/27 10:38:56;;;;;;;;;2.20;2.20;;;;;;;;5028294;28;8990;-79
2023/08/27 10:41:25;;;;;;;;;0.40;0.40;;;;;;;;5026430;28;9767;-72
2023/08/27 10:43:53;;;;;;;;;3.40;3.40;;;;;;;;5027503;28;9611;-72
2023/08/27 10:46:23;;;;;;;;;5.00;5.00;;;;;;;;5027111;28;8864;-72
2023/08/27 10:48:51;;;;;;;;;2.80;2.80;;;;;;;;5027739;28;8977;-72
2023/08/27 10:51:21;;;;;;;;;67.67;55.00;;;;;;;;5027628;28;8845;-73
2023/08/27 10:53:58;;;;;;;;;2.00;2.00;;;;;;;;5027879;28;9181;-75
2023/08/27 10:56:30;;;;;;;;;6.40;6.40;;;;;;;;5027889;28;8994;-73
2023/08/27 10:59:01;;;;;;;;;1.00;1.00;;;;;;;;5027197;28;8868;-74
2023/08/27 11:01:29;;;;;;;;;1.40;1.40;;;;;;;;5027051;28;8815;-74
2023/08/27 11:03:57;;;;;;;;;0.80;0.80;;;;;;;;5026997;28;8856;-78
2023/08/27 11:06:38;;;;;;;;;2.00;2.00;;;;;;;;5027590;28;9893;-74
2023/08/27 11:09:17;;;;;;;;;3.00;3.00;;;;;;;;5027436;28;8860;-73
2023/08/27 11:11:46;;;;;;;;;7.60;7.60;;;;;;;;5027730;28;8848;-75
2023/08/27 11:14:16;;;;;;;;;6.40;4.80;;;;;;;;5027687;28;8890;-75
2023/08/27 11:16:49;;;;;;;;;8.20;8.20;;;;;;;;5027882;28;8856;-78
2023/08/27 11:19:26;;;;;;;;;4.20;4.20;;;;;;;;5027692;28;8894;-74
2023/08/27 11:21:53;;;;;;;;;4.40;4.40;;;;;;;;5027384;28;8841;-73
2023/08/27 11:24:24;;;;;;;;;2.40;2.40;;;;;;;;5026801;28;8864;-72
2023/08/27 11:26:52;;;;;;;;;0.40;0.40;;;;;;;;5027247;28;9623;-72
2023/08/27 11:29:23;;;;;;;;;14.80;13.40;;;;;;;;5026716;28;8841;-74
2023/08/27 11:31:50;;;;;;;;;0.60;0.60;;;;;;;;5026670;28;8851;-72
2023/08/27 11:34:18;;;;;;;;;3.00;3.00;;;;;;;;5026678;28;8870;-74
2023/08/27 11:36:48;;;;;;;;;1.40;1.40;;;;;;;;5021173;28;8863;-74
2023/08/27 11:39:19;;;;;;;;;2.00;2.00;;;;;;;;5024238;28;8903;-72
2023/08/27 11:41:47;;;;;;;;;0.80;0.80;;;;;;;;5027476;28;8875;-72
2023/08/27 11:44:16;;;;;;;;;2.00;2.00;;;;;;;;5027362;28;8891;-73
2023/08/27 11:46:44;;;;;;;;;1.80;1.80;;;;;;;;5029102;28;8853;-75
2023/08/27 11:49:15;;;;;;;;;1.00;1.00;;;;;;;;5029413;28;8979;-73
2023/08/27 11:51:43;;;;;;;;;2.20;0.80;;;;;;;;5031136;28;8841;-74
2023/08/27 11:54:11;;;;;;;;;1.80;1.40;;;;;;;;5032998;28;8883;-72
2023/08/27 11:56:39;;;;;;;;;0.80;0.80;;;;;;;;5033323;28;8888;-72
2023/08/27 11:59:07;;;;;;;;;0.20;0.20;;;;;;;;5031953;28;8975;-74
2023/08/27 12:01:35;;;;;;;;;2.00;0.60;;;;;;;;5030203;28;8820;-76
2023/08/27 12:04:03;;;;;;;;;0.20;0.20;;;;;;;;5029979;28;8928;-74
2023/08/27 12:06:31;;;;;;;;;0.40;0.40;;;;;;;;5031179;28;8848;-74
2023/08/27 12:09:00;;;;;;;;;1.00;1.00;;;;;;;;5030175;28;8935;-73
2023/08/27 12:11:29;;;;;;;;;0.20;0.20;;;;;;;;5029964;28;8852;-72
2023/08/27 12:14:02;;;;;;;;;0.20;0.20;;;;;;;;5029883;28;8882;-72
2023/08/27 12:16:37;;;;;;;;;1.00;1.00;;;;;;;;5029316;28;8938;-75
2023/08/27 12:19:08;;;;;;;;;0.00;0.00;;;;;;;;5020757;28;8837;-73
2023/08/27 12:21:37;;;;;;;;;0.80;0.80;;;;;;;;5029880;28;8918;-74
2023/08/27 12:24:05;;;;;;;;;0.20;0.20;;;;;;;;5030352;28;8864;-72
2023/08/27 12:26:32;;;;;;;;;2.00;0.60;;;;;;;;5029510;28;8982;-71
2023/08/27 12:29:02;;;;;;;;;2.00;2.00;;;;;;;;5030049;28;9642;-76
2023/08/27 12:31:32;;;;;;;;;0.20;0.20;;;;;;;;5028974;28;8816;-73
2023/08/27 12:34:05;;;;;;;;;0.60;0.20;;;;;;;;5030269;28;8999;-73
2023/08/27 12:36:33;;;;;;;;;0.20;0.20;;;;;;;;5027800;28;8836;-72
2023/08/27 12:39:00;;;;;;;;;0.20;0.20;;;;;;;;5029593;28;8904;-72
2023/08/27 12:41:27;;;;;;;;;0.00;0.00;;;;;;;;5029230;28;8887;-73
2023/08/27 12:43:55;;;;;;;;;0.00;0.00;;;;;;;;5029328;28;9775;-71
2023/08/27 12:46:23;;;;;;;;;0.00;0.00;;;;;;;;5029464;28;9753;-74
2023/08/27 12:48:52;;;;;;;;;0.00;0.00;;;;;;;;5029547;28;8863;-72
2023/08/27 12:51:19;;;;;;;;;0.00;0.00;;;;;;;;5029152;28;8871;-73
2023/08/27 12:53:49;;;;;;;;;0.00;0.00;;;;;;;;5029446;28;8901;-74
2023/08/27 12:56:16;;;;;;;;;0.20;0.20;;;;;;;;5030167;28;8878;-73
2023/08/27 12:58:44;;;;;;;;;0.80;0.80;;;;;;;;5029834;28;8975;-73
2023/08/27 13:01:12;;;;;;;;;0.00;0.00;;;;;;;;5029269;28;8821;-73
2023/08/27 13:03:39;;;;;;;;;1.80;1.80;;;;;;;;5028163;28;8868;-72
2023/08/27 13:06:11;;;;;;;;;0.80;0.80;;;;;;;;5029675;28;9664;-75
2023/08/27 13:08:38;;;;;;;;;0.20;0.20;;;;;;;;5028997;28;9761;-72
2023/08/27 13:11:05;;;;;;;;;0.40;0.40;;;;;;;;5029627;28;8840;-73
2023/08/27 13:13:33;;;;;;;;;0.20;0.20;;;;;;;;5028833;28;8862;-73
2023/08/27 13:16:03;;;;;;;;;0.80;0.80;;;;;;;;5029327;28;9645;-73
2023/08/27 13:18:31;;;;;;;;;0.20;0.20;;;;;;;;5029076;28;8876;-73
2023/08/27 13:20:58;;;;;;;;;0.80;0.80;;;;;;;;5029515;28;8868;-72
2023/08/27 13:23:26;;;;;;;;;0.80;0.80;;;;;;;;5028928;28;8845;-73
2023/08/27 13:25:54;;;;;;;;;0.60;0.60;;;;;;;;5030444;28;8865;-78
2023/08/27 13:28:21;;;;;;;;;0.00;0.00;;;;;;;;5031852;28;9229;-74
2023/08/27 13:30:48;;;;;;;;;0.00;0.00;;;;;;;;5031120;28;8796;-74
2023/08/27 13:33:16;;;;;;;;;0.20;0.20;;;;;;;;5031425;28;8907;-73
2023/08/27 13:35:43;;;;;;;;;0.80;0.80;;;;;;;;5033267;28;8961;-73
2023/08/27 13:38:11;;;;;;;;;0.80;0.80;;;;;;;;5020753;28;8982;-75
2023/08/27 13:40:39;;;;;;;;;0.80;0.80;;;;;;;;5029593;28;8890;-77
2023/08/27 13:43:08;;;;;;;;;1.00;1.00;;;;;;;;5029435;28;8992;-80
2023/08/27 13:45:35;;;;;;;;;0.40;0.20;;;;;;;;5029067;28;9011;-72
2023/08/27 13:48:06;;;;;;;;;0.80;0.80;;;;;;;;5029442;28;8884;-75
2023/08/27 13:50:33;;;;;;;;;2.40;1.00;;;;;;;;5028466;28;8962;-73
2023/08/27 13:53:03;;;;;;;;;0.00;0.00;;;;;;;;5028448;28;8943;-76
2023/08/27 13:55:31;;;;;;;;;0.20;0.20;;;;;;;;5028812;28;8876;-74
2023/08/27 13:58:00;;;;;;;;;0.60;0.60;;;;;;;;5028586;28;8848;-72
2023/08/27 14:00:28;;;;;;;;;1.20;0.00;;;;;;;;5026320;28;8799;-74
2023/08/27 14:02:55;;;;;;;;;1.20;1.20;;;;;;;;5028335;28;8870;-74
2023/08/27 14:05:24;;;;;;;;;0.80;0.80;;;;;;;;5028127;28;8880;-75
2023/08/27 14:07:51;;;;;;;;;0.80;0.80;;;;;;;;5028727;28;8874;-73
2023/08/27 14:10:19;;;;;;;;;0.80;0.80;;;;;;;;5027967;28;8849;-72
2023/08/27 14:12:49;;;;;;;;;0.80;0.80;;;;;;;;5028781;28;8848;-73
2023/08/27 14:15:18;;;;;;;;;0.80;0.80;;;;;;;;5027006;28;8852;-75
2023/08/27 14:17:45;;;;;;;;;0.00;0.00;;;;;;;;5028616;28;9618;-78
2023/08/27 14:20:13;;;;;;;;;1.20;0.00;;;;;;;;5028426;28;8864;-76
2023/08/27 14:22:40;;;;;;;;;0.00;0.00;;;;;;;;5028418;28;8972;-74
2023/08/27 14:25:08;;;;;;;;;0.00;0.00;;;;;;;;5027667;28;10187;-73
2023/08/27 14:27:35;;;;;;;;;1.40;1.40;;;;;;;;5027999;28;8875;-72
2023/08/27 14:30:03;;;;;;;;;0.20;0.20;;;;;;;;5027204;28;8852;-73
2023/08/27 14:32:32;;;;;;;;;0.00;0.00;;;;;;;;5027976;28;8844;-76
2023/08/27 14:34:59;;;;;;;;;0.00;0.00;;;;;;;;5015863;28;8876;-73
2023/08/27 14:37:26;;;;;;;;;0.20;0.20;;;;;;;;5016706;28;8839;-75
2023/08/27 14:39:53;;;;;;;;;0.20;0.00;;;;;;;;5027856;28;8848;-72
2023/08/27 14:42:20;;;;;;;;;0.20;0.20;;;;;;;;5026896;28;8882;-74
2023/08/27 14:44:48;;;;;;;;;0.20;0.20;;;;;;;;5028334;28;8845;-77
2023/08/27 14:47:17;;;;;;;;;0.00;0.00;;;;;;;;5028482;28;8890;-73
2023/08/27 14:49:49;;;;;;;;;1.00;0.20;;;;;;;;5028698;28;8868;-74
2023/08/27 14:52:16;;;;;;;;;0.20;0.20;;;;;;;;5027949;28;8975;-75
2023/08/27 14:54:45;;;;;;;;;2.00;1.00;;;;;;;;5028143;28;9789;-73
2023/08/27 14:57:12;;;;;;;;;0.80;0.80;;;;;;;;5026270;28;9046;-72
2023/08/27 14:59:41;;;;;;;;;0.80;0.80;;;;;;;;5017978;28;8866;-73
2023/08/27 15:02:09;;;;;;;;;0.00;0.00;;;;;;;;5030826;28;8848;-72